Time;durP1;ratioP1;P1;durP2;ratioP2;P2;SDS_P1;SDS_P2;PMS_P1;PMS_P2;Temp;Humidity;BMP_temperature;BMP_pressure;BME280_temperature;BME280_humidity;BME280_pressure;Samples;Min_cycle;Max_cycle;Signal;HPM_P1;HPM_P2
2022/03/03 00:00:51;;;;;;;6.60;3.90;;;8.20;63.10;;;;;;20798602;28;20116;-78
2022/03/03 00:10:52;;;;;;;6.38;3.80;;;8.20;63.10;;;;;;20797058;28;20041;-78
2022/03/03 00:20:52;;;;;;;6.07;3.20;;;8.20;63.00;;;;;;20813816;28;20041;-78
2022/03/03 00:30:53;;;;;;;7.30;3.92;;;8.10;62.90;;;;;;20797176;28;20072;-77
2022/03/03 00:40:53;;;;;;;6.73;3.93;;;8.20;62.90;;;;;;20795372;28;20030;-77
2022/03/03 00:50:54;;;;;;;6.15;3.60;;;8.10;62.80;;;;;;20811652;28;20686;-77
2022/03/03 01:00:54;;;;;;;5.90;3.50;;;8.20;62.80;;;;;;20811480;28;20401;-78
2022/03/03 01:10:55;;;;;;;4.97;3.43;;;8.10;62.70;;;;;;20778413;28;20083;-77
2022/03/03 01:20:56;;;;;;;6.25;3.40;;;8.10;62.70;;;;;;20803325;28;20288;-77
2022/03/03 01:30:56;;;;;;;4.60;3.05;;;8.10;62.70;;;;;;20788120;28;20556;-77
2022/03/03 01:40:57;;;;;;;6.15;3.45;;;8.10;62.70;;;;;;20776314;28;20037;-77
2022/03/03 01:50:57;;;;;;;6.95;4.05;;;8.10;62.60;;;;;;20792381;28;20041;-77
2022/03/03 02:00:58;;;;;;;7.80;4.20;;;8.10;62.60;;;;;;20808488;28;20057;-78
2022/03/03 02:10:59;;;;;;;7.30;4.50;;;8.10;62.60;;;;;;20791573;28;20068;-77
2022/03/03 02:20:59;;;;;;;6.50;4.07;;;8.10;62.60;;;;;;20791053;28;20121;-77
2022/03/03 02:31:00;;;;;;;10.43;4.88;;;8.10;62.60;;;;;;20811575;28;20368;-77
2022/03/03 02:41:00;;;;;;;9.80;4.60;;;8.00;62.50;;;;;;20788619;28;20036;-76
2022/03/03 02:51:01;;;;;;;6.90;4.25;;;8.00;62.50;;;;;;20803497;28;20454;-77
2022/03/03 03:01:03;;;;;;;9.10;4.53;;;8.00;62.50;;;;;;20802565;28;20041;-78
2022/03/03 03:11:04;;;;;;;11.38;4.43;;;8.00;62.50;;;;;;20803677;28;20029;-77
2022/03/03 03:21:04;;;;;;;9.05;4.93;;;8.10;62.50;;;;;;20817090;28;20492;-77
2022/03/03 03:31:05;;;;;;;11.23;5.50;;;8.10;62.40;;;;;;20797997;28;20123;-77
2022/03/03 03:41:06;;;;;;;9.13;4.57;;;8.10;62.30;;;;;;20797166;28;20041;-77
2022/03/03 03:51:07;;;;;;;10.57;5.47;;;8.00;62.30;;;;;;20813490;28;20041;-77
2022/03/03 04:01:07;;;;;;;8.60;5.97;;;8.00;62.20;;;;;;20813608;28;20292;-77
2022/03/03 04:11:08;;;;;;;8.65;5.68;;;8.00;62.20;;;;;;20715949;28;20037;-77
2022/03/03 04:21:09;;;;;;;9.30;5.60;;;8.00;62.20;;;;;;20731814;28;20061;-76
2022/03/03 04:31:10;;;;;;;10.70;5.70;;;8.00;62.20;;;;;;20747136;28;20117;-76
2022/03/03 04:41:11;;;;;;;12.60;5.55;;;8.00;62.10;;;;;;20730469;28;20037;-77
2022/03/03 04:51:11;;;;;;;9.30;5.50;;;7.90;62.10;;;;;;20728510;28;20029;-76
2022/03/03 05:01:12;;;;;;;11.30;5.95;;;8.00;62.10;;;;;;20745406;28;20474;-76
2022/03/03 05:11:12;;;;;;;8.13;5.18;;;8.00;62.00;;;;;;20728560;28;20045;-76
2022/03/03 05:21:13;;;;;;;15.98;7.10;;;8.00;61.80;;;;;;20777801;28;20132;-75
2022/03/03 05:31:14;;;;;;;11.83;5.40;;;8.20;61.30;;;;;;20809360;28;20037;-78
2022/03/03 05:41:14;;;;;;;12.88;6.70;;;8.60;60.50;;;;;;20825144;28;20303;-77
2022/03/03 05:51:16;;;;;;;14.10;7.20;;;9.00;59.50;;;;;;20823086;28;20072;-72
2022/03/03 06:01:17;;;;;;;10.65;7.00;;;9.30;58.50;;;;;;20793632;28;20037;-78
2022/03/03 06:11:17;;;;;;;12.45;6.65;;;9.60;57.70;;;;;;20836019;28;20036;-78
2022/03/03 06:21:19;;;;;;;11.05;5.65;;;9.60;57.20;;;;;;20818998;28;20037;-79
2022/03/03 06:31:23;;;;;;;11.00;6.07;;;9.50;57.00;;;;;;20839327;28;20469;-76
2022/03/03 06:41:24;;;;;;;13.65;6.50;;;9.30;57.30;;;;;;20836803;28;20497;-77
2022/03/03 06:51:28;;;;;;;9.55;6.60;;;9.00;57.70;;;;;;20838783;28;20038;-78
2022/03/03 07:01:28;;;;;;;12.50;6.93;;;8.80;58.20;;;;;;20820473;28;20069;-78
2022/03/03 07:11:29;;;;;;;12.90;6.38;;;8.60;58.70;;;;;;20821173;28;20401;-79
2022/03/03 07:21:54;;;;;;;13.48;7.00;;;8.40;59.10;;;;;;20815815;28;20044;-76
2022/03/03 07:31:59;;;;;;;14.20;7.32;;;8.30;59.60;;;;;;20819209;28;20046;-76
2022/03/03 07:41:59;;;;;;;11.68;6.47;;;8.20;59.80;;;;;;20835361;28;20484;-76
2022/03/03 07:52:03;;;;;;;15.63;6.88;;;8.20;60.20;;;;;;20816874;28;20056;-76
2022/03/03 08:02:04;;;;;;;11.77;6.72;;;8.10;60.40;;;;;;20815489;28;20428;-75
2022/03/03 08:12:06;;;;;;;12.38;6.97;;;8.10;60.70;;;;;;20830946;28;20436;-76
2022/03/03 08:22:07;;;;;;;23.50;7.63;;;8.00;60.90;;;;;;20812615;28;20049;-77
2022/03/03 08:32:11;;;;;;;14.48;6.35;;;8.10;61.20;;;;;;20812864;28;20091;-77
2022/03/03 08:42:14;;;;;;;13.38;6.78;;;8.00;61.30;;;;;;20828282;28;20041;-76
2022/03/03 08:52:15;;;;;;;13.82;6.70;;;8.00;61.60;;;;;;20810334;28;20025;-76
2022/03/03 09:02:20;;;;;;;12.93;6.75;;;8.10;61.80;;;;;;20795100;28;20037;-77
2022/03/03 09:12:20;;;;;;;10.85;5.85;;;8.00;61.80;;;;;;20792545;28;20032;-76
2022/03/03 09:22:21;;;;;;;10.02;5.57;;;8.00;61.80;;;;;;20825896;28;20045;-77
2022/03/03 09:32:21;;;;;;;10.73;5.40;;;8.10;62.00;;;;;;20804194;28;20103;-77
2022/03/03 09:42:22;;;;;;;8.98;5.15;;;8.00;62.00;;;;;;20801516;28;20250;-76
2022/03/03 09:52:23;;;;;;;10.13;4.88;;;8.00;62.10;;;;;;20822900;28;20029;-76
2022/03/03 10:02:23;;;;;;;7.53;4.30;;;8.10;62.30;;;;;;20821120;28;20611;-77
2022/03/03 10:12:26;;;;;;;8.75;4.95;;;8.00;62.30;;;;;;20838038;28;20029;-76
2022/03/03 10:22:44;;;;;;;9.77;3.97;;;8.00;62.40;;;;;;20837172;28;20045;-76
2022/03/03 10:32:46;;;;;;;6.40;3.50;;;8.10;62.50;;;;;;20819609;28;20029;-76
2022/03/03 10:42:48;;;;;;;8.63;3.97;;;8.00;62.60;;;;;;20812527;28;20047;-76
2022/03/03 10:52:49;;;;;;;6.28;3.65;;;8.00;62.60;;;;;;20796760;28;20048;-75
2022/03/03 11:02:51;;;;;;;6.85;3.65;;;8.00;62.70;;;;;;20814745;28;20477;-75
2022/03/03 11:12:52;;;;;;;6.78;3.53;;;8.10;62.80;;;;;;20799444;28;20052;-76
2022/03/03 11:22:56;;;;;;;8.25;3.38;;;8.00;62.80;;;;;;20814821;28;20041;-75
2022/03/03 11:33:17;;;;;;;6.10;2.75;;;8.00;62.90;;;;;;21100765;22;20050;-74
2022/03/03 11:43:17;;;;;;;5.45;3.03;;;8.00;62.90;;;;;;20732157;28;20045;-73
2022/03/03 11:53:20;;;;;;;4.95;2.78;;;8.00;62.90;;;;;;20646464;28;20459;-76
2022/03/03 12:03:22;;;;;;;5.40;2.78;;;8.00;62.90;;;;;;20730968;28;20038;-75
2022/03/03 12:13:29;;;;;;;3.67;2.28;;;8.20;62.70;;;;;;20686760;28;20034;-77
2022/03/03 12:23:31;;;;;;;7.60;3.10;;;8.60;62.10;;;;;;20745471;28;20072;-73
2022/03/03 12:33:32;;;;;;;4.55;2.55;;;9.00;61.20;;;;;;20727149;28;20470;-75
2022/03/03 12:43:39;;;;;;;3.93;2.70;;;9.40;60.00;;;;;;20773622;28;20051;-74
2022/03/03 12:53:47;;;;;;;4.70;2.47;;;9.70;59.10;;;;;;20810162;28;20394;-74
2022/03/03 13:03:48;;;;;;;3.83;2.40;;;9.80;58.70;;;;;;20808560;28;20060;-77
2022/03/03 13:13:54;;;;;;;4.07;2.10;;;9.70;58.60;;;;;;20765571;28;20034;-77
2022/03/03 13:23:56;;;;;;;;;;;9.40;59.00;;;;;;20727368;28;20520;-78
2022/03/03 13:34:03;;;;;;;3.40;2.13;;;9.10;60.20;;;;;;20894844;28;19923;-76
2022/03/03 13:44:20;;;;;;;6.87;3.50;;;8.90;60.10;;;;;;20895893;28;20492;-80
2022/03/03 13:54:20;;;;;;;4.18;2.22;;;8.70;60.70;;;;;;20906609;28;20095;-75
2022/03/03 14:04:21;;;;;;;5.25;2.28;;;8.60;61.10;;;;;;20905602;28;20037;-77
2022/03/03 14:14:22;;;;;;;2.90;1.75;;;8.50;61.40;;;;;;20855576;28;20033;-75
2022/03/03 14:24:23;;;;;;;3.20;1.90;;;8.40;61.70;;;;;;20856884;28;20135;-77
2022/03/03 14:34:23;;;;;;;2.90;1.55;;;8.50;62.00;;;;;;20896443;28;20130;-76
2022/03/03 14:44:24;;;;;;;4.03;1.95;;;8.40;62.00;;;;;;20950208;28;20167;-81
2022/03/03 14:54:25;;;;;;;3.30;1.45;;;8.40;62.30;;;;;;20952562;28;20028;-80
2022/03/03 15:04:25;;;;;;;3.50;2.03;;;8.30;62.40;;;;;;20951579;28;20037;-81
2022/03/03 15:14:26;;;;;;;2.17;1.23;;;8.30;62.60;;;;;;20933085;28;20387;-79
2022/03/03 15:24:27;;;;;;;2.35;1.73;;;8.30;62.70;;;;;;20861375;28;20460;-73
2022/03/03 15:44:47;;;;;;;1.63;1.13;;;8.30;62.90;;;;;;20885673;28;20311;-75
2022/03/03 15:54:47;;;;;;;2.88;1.60;;;8.40;62.60;;;;;;20913964;28;20540;-74
2022/03/03 16:04:48;;;;;;;3.30;1.65;;;8.70;62.20;;;;;;20896394;28;20150;-75
2022/03/03 16:14:49;;;;;;;3.22;1.58;;;8.90;61.60;;;;;;20909160;28;20120;-74
2022/03/03 16:24:50;;;;;;;2.58;1.33;;;9.20;60.90;;;;;;20867485;28;20025;-76
2022/03/03 16:34:51;;;;;;;2.60;1.60;;;9.40;60.40;;;;;;20913848;28;20063;-76
2022/03/03 16:44:53;;;;;;;2.95;1.50;;;9.40;60.00;;;;;;20943376;28;20036;-76
2022/03/03 16:54:55;;;;;;;4.47;1.67;;;9.30;60.20;;;;;;20958131;28;20425;-76
2022/03/03 17:04:55;;;;;;;10.73;2.30;;;9.10;60.50;;;;;;20983293;28;20067;-75
2022/03/03 17:14:56;;;;;;;5.68;2.22;;;8.90;60.90;;;;;;20962077;28;20068;-76
2022/03/03 17:24:57;;;;;;;6.30;2.22;;;8.70;61.40;;;;;;20999629;28;20047;-77
2022/03/03 17:34:57;;;;;;;3.22;1.52;;;8.60;61.90;;;;;;20894156;28;20025;-80
2022/03/03 17:44:58;;;;;;;4.80;1.92;;;8.50;62.20;;;;;;20906308;28;20037;-74
2022/03/03 17:54:59;;;;;;;6.53;2.13;;;8.50;62.50;;;;;;20829964;28;20127;-74
2022/03/03 18:05:00;;;;;;;3.90;1.60;;;8.40;62.80;;;;;;20865008;28;20037;-74
2022/03/03 18:15:02;;;;;;;3.08;1.42;;;8.30;63.00;;;;;;20875269;28;20377;-75
2022/03/03 18:25:03;;;;;;;4.30;1.92;;;8.30;63.20;;;;;;20886035;28;20136;-75
2022/03/03 18:35:04;;;;;;;2.75;1.35;;;8.30;63.30;;;;;;20901929;28;20499;-75
2022/03/03 18:45:05;;;;;;;2.78;1.70;;;8.20;63.40;;;;;;20891731;28;20044;-76
2022/03/03 18:55:06;;;;;;;3.35;1.40;;;8.20;63.60;;;;;;20881587;28;20124;-76
2022/03/03 19:05:07;;;;;;;2.15;1.30;;;8.20;63.70;;;;;;20879219;28;20112;-76
2022/03/03 19:15:09;;;;;;;3.75;1.70;;;8.20;63.80;;;;;;20899488;28;20063;-76
2022/03/03 19:25:10;;;;;;;9.02;1.67;;;8.20;63.80;;;;;;20866868;28;20052;-76
2022/03/03 19:35:11;;;;;;;2.60;1.53;;;8.20;64.50;;;;;;20866025;28;20552;-76
2022/03/03 19:45:11;;;;;;;2.55;0.90;;;8.20;63.80;;;;;;20901800;28;20290;-76
2022/03/03 19:55:13;;;;;;;2.97;1.40;;;8.20;63.80;;;;;;20979976;28;20047;-75
2022/03/03 20:05:13;;;;;;;3.13;1.10;;;8.20;63.80;;;;;;20962428;28;20032;-75
2022/03/03 20:15:14;;;;;;;2.58;1.35;;;8.20;63.80;;;;;;20951943;28;20044;-76
2022/03/03 20:25:15;;;;;;;1.80;0.93;;;8.20;63.80;;;;;;20897369;28;20127;-76
2022/03/03 20:35:18;;;;;;;2.15;1.10;;;8.20;63.80;;;;;;20900008;28;20025;-75
2022/03/03 20:45:18;;;;;;;2.22;1.35;;;8.20;63.80;;;;;;20914895;28;20068;-76
2022/03/03 20:55:19;;;;;;;2.42;0.95;;;8.20;63.90;;;;;;20933136;28;20111;-75
2022/03/03 21:05:20;;;;;;;2.92;1.30;;;8.20;63.90;;;;;;20915996;28;20065;-75
2022/03/03 21:15:20;;;;;;;2.22;1.15;;;8.20;63.90;;;;;;20931130;28;20499;-76
2022/03/03 21:25:21;;;;;;;1.92;0.98;;;8.20;63.90;;;;;;20940277;28;20043;-75
2022/03/03 21:35:21;;;;;;;1.48;0.70;;;8.20;63.90;;;;;;20948398;28;20120;-75
2022/03/03 21:45:22;;;;;;;3.97;1.40;;;8.20;63.90;;;;;;20967471;28;20115;-75
2022/03/03 21:55:26;;;;;;;1.88;1.20;;;8.20;63.90;;;;;;20983596;28;20313;-76
2022/03/03 22:05:27;;;;;;;2.97;1.05;;;8.20;63.80;;;;;;20983069;28;20029;-75
2022/03/03 22:15:28;;;;;;;2.55;1.10;;;8.30;63.90;;;;;;20982959;28;20404;-75
2022/03/03 22:25:28;;;;;;;2.58;1.27;;;8.20;63.80;;;;;;20982535;28;20375;-75
2022/03/03 22:35:29;;;;;;;2.42;1.13;;;8.20;63.90;;;;;;20982057;28;20524;-76
2022/03/03 22:45:30;;;;;;;2.05;1.13;;;8.10;63.80;;;;;;20979030;28;20036;-75
2022/03/03 22:55:30;;;;;;;2.05;1.02;;;8.20;63.90;;;;;;20952940;28;20126;-75
2022/03/03 23:05:31;;;;;;;2.58;1.23;;;8.20;63.90;;;;;;20950772;28;20396;-76
2022/03/03 23:15:32;;;;;;;4.68;2.17;;;8.20;63.90;;;;;;20919639;28;20484;-75
2022/03/03 23:25:33;;;;;;;3.90;1.42;;;8.20;63.90;;;;;;20881332;28;20041;-75
2022/03/03 23:35:33;;;;;;;2.72;1.58;;;8.20;63.90;;;;;;20882778;28;20039;-76
2022/03/03 23:45:34;;;;;;;2.65;1.23;;;8.10;63.90;;;;;;20881498;28;20033;-76
2022/03/03 23:55:35;;;;;;;2.60;1.42;;;8.10;63.90;;;;;;20881333;28;20492;-75
